sensor_id;sensor_type;location;lat;lon;timestamp;temperature;humidity
3542;DHT22;1785;47.388;8.538;2023-08-17T00:01:48;27.10;99.90
3542;DHT22;1785;47.388;8.538;2023-08-17T00:04:14;27.20;99.90
3542;DHT22;1785;47.388;8.538;2023-08-17T00:06:40;27.10;99.90
3542;DHT22;1785;47.388;8.538;2023-08-17T00:09:06;27.00;99.90
3542;DHT22;1785;47.388;8.538;2023-08-17T00:11:32;27.10;99.90
3542;DHT22;1785;47.388;8.538;2023-08-17T00:13:59;27.00;99.90
3542;DHT22;1785;47.388;8.538;2023-08-17T00:16:25;26.90;99.90
3542;DHT22;1785;47.388;8.538;2023-08-17T00:18:51;27.00;99.90
3542;DHT22;1785;47.388;8.538;2023-08-17T00:21:17;27.10;99.90
3542;DHT22;1785;47.388;8.538;2023-08-17T00:23:43;27.00;99.90
3542;DHT22;1785;47.388;8.538;2023-08-17T00:26:09;27.10;99.90
3542;DHT22;1785;47.388;8.538;2023-08-17T00:28:36;27.10;99.90
3542;DHT22;1785;47.388;8.538;2023-08-17T00:31:02;26.90;99.90
3542;DHT22;1785;47.388;8.538;2023-08-17T00:33:29;26.90;99.90
3542;DHT22;1785;47.388;8.538;2023-08-17T00:35:55;26.70;99.90
3542;DHT22;1785;47.388;8.538;2023-08-17T00:38:21;26.60;99.90
3542;DHT22;1785;47.388;8.538;2023-08-17T00:40:47;26.60;99.90
3542;DHT22;1785;47.388;8.538;2023-08-17T00:43:13;26.80;99.90
3542;DHT22;1785;47.388;8.538;2023-08-17T00:45:40;26.80;99.90
3542;DHT22;1785;47.388;8.538;2023-08-17T00:48:08;26.80;99.90
3542;DHT22;1785;47.388;8.538;2023-08-17T00:50:35;26.90;99.90
3542;DHT22;1785;47.388;8.538;2023-08-17T00:53:02;26.80;99.90
3542;DHT22;1785;47.388;8.538;2023-08-17T00:55:28;26.90;99.90
3542;DHT22;1785;47.388;8.538;2023-08-17T00:57:56;26.90;99.90
3542;DHT22;1785;47.388;8.538;2023-08-17T01:00:24;26.90;99.90
3542;DHT22;1785;47.388;8.538;2023-08-17T01:02:51;26.90;99.90
3542;DHT22;1785;47.388;8.538;2023-08-17T01:05:18;26.90;99.90
3542;DHT22;1785;47.388;8.538;2023-08-17T01:07:44;26.80;99.90
3542;DHT22;1785;47.388;8.538;2023-08-17T01:10:10;26.80;99.90
3542;DHT22;1785;47.388;8.538;2023-08-17T01:12:42;26.80;99.90
3542;DHT22;1785;47.388;8.538;2023-08-17T01:15:12;26.60;99.90
3542;DHT22;1785;47.388;8.538;2023-08-17T01:17:44;26.60;99.90
3542;DHT22;1785;47.388;8.538;2023-08-17T01:20:14;26.60;99.90
3542;DHT22;1785;47.388;8.538;2023-08-17T01:22:42;26.50;99.90
3542;DHT22;1785;47.388;8.538;2023-08-17T01:25:11;26.60;99.90
3542;DHT22;1785;47.388;8.538;2023-08-17T01:27:39;26.60;99.90
3542;DHT22;1785;47.388;8.538;2023-08-17T01:30:07;26.60;99.90
3542;DHT22;1785;47.388;8.538;2023-08-17T01:32:37;26.50;99.90
3542;DHT22;1785;47.388;8.538;2023-08-17T01:35:08;26.50;99.90
3542;DHT22;1785;47.388;8.538;2023-08-17T01:37:38;26.30;99.90
3542;DHT22;1785;47.388;8.538;2023-08-17T01:40:06;26.40;99.90
3542;DHT22;1785;47.388;8.538;2023-08-17T01:42:36;26.40;99.90
3542;DHT22;1785;47.388;8.538;2023-08-17T01:45:04;26.40;99.90
3542;DHT22;1785;47.388;8.538;2023-08-17T01:47:30;26.40;99.90
3542;DHT22;1785;47.388;8.538;2023-08-17T01:49:56;26.40;99.90
3542;DHT22;1785;47.388;8.538;2023-08-17T01:52:26;26.30;99.90
3542;DHT22;1785;47.388;8.538;2023-08-17T01:54:53;26.20;99.90
3542;DHT22;1785;47.388;8.538;2023-08-17T01:57:19;26.10;99.90
3542;DHT22;1785;47.388;8.538;2023-08-17T01:59:46;26.10;99.90
3542;DHT22;1785;47.388;8.538;2023-08-17T02:02:12;26.10;99.90
3542;DHT22;1785;47.388;8.538;2023-08-17T02:04:40;26.10;99.90
3542;DHT22;1785;47.388;8.538;2023-08-17T02:07:06;26.20;99.90
3542;DHT22;1785;47.388;8.538;2023-08-17T02:09:32;26.20;99.90
3542;DHT22;1785;47.388;8.538;2023-08-17T02:11:58;26.10;99.90
3542;DHT22;1785;47.388;8.538;2023-08-17T02:14:24;26.10;99.90
3542;DHT22;1785;47.388;8.538;2023-08-17T02:16:52;26.10;99.90
3542;DHT22;1785;47.388;8.538;2023-08-17T02:19:18;26.20;99.90
3542;DHT22;1785;47.388;8.538;2023-08-17T02:21:44;26.30;99.90
3542;DHT22;1785;47.388;8.538;2023-08-17T02:24:10;26.20;99.90
3542;DHT22;1785;47.388;8.538;2023-08-17T02:26:36;26.10;99.90
3542;DHT22;1785;47.388;8.538;2023-08-17T02:29:04;26.10;99.90
3542;DHT22;1785;47.388;8.538;2023-08-17T02:31:30;26.00;99.90
3542;DHT22;1785;47.388;8.538;2023-08-17T02:33:56;25.80;99.90
3542;DHT22;1785;47.388;8.538;2023-08-17T02:36:26;25.90;99.90
3542;DHT22;1785;47.388;8.538;2023-08-17T02:38:52;25.80;99.90
3542;DHT22;1785;47.388;8.538;2023-08-17T02:41:18;25.90;99.90
3542;DHT22;1785;47.388;8.538;2023-08-17T02:43:44;25.90;99.90
3542;DHT22;1785;47.388;8.538;2023-08-17T02:46:10;25.90;99.90
3542;DHT22;1785;47.388;8.538;2023-08-17T02:48:36;25.80;99.90
3542;DHT22;1785;47.388;8.538;2023-08-17T02:51:03;25.80;99.90
3542;DHT22;1785;47.388;8.538;2023-08-17T02:53:29;25.80;99.90
3542;DHT22;1785;47.388;8.538;2023-08-17T02:55:55;25.70;99.90
3542;DHT22;1785;47.388;8.538;2023-08-17T02:58:21;25.90;99.90
3542;DHT22;1785;47.388;8.538;2023-08-17T03:00:47;25.80;99.90
3542;DHT22;1785;47.388;8.538;2023-08-17T03:03:13;25.60;99.90
3542;DHT22;1785;47.388;8.538;2023-08-17T03:05:39;25.60;99.90
3542;DHT22;1785;47.388;8.538;2023-08-17T03:08:06;25.60;99.90
3542;DHT22;1785;47.388;8.538;2023-08-17T03:10:32;25.60;99.90
3542;DHT22;1785;47.388;8.538;2023-08-17T03:12:58;25.70;99.90
3542;DHT22;1785;47.388;8.538;2023-08-17T03:15:24;25.70;99.90
3542;DHT22;1785;47.388;8.538;2023-08-17T03:17:50;25.80;99.90
3542;DHT22;1785;47.388;8.538;2023-08-17T03:20:16;25.70;99.90
3542;DHT22;1785;47.388;8.538;2023-08-17T03:22:43;25.70;99.90
3542;DHT22;1785;47.388;8.538;2023-08-17T03:25:09;25.40;99.90
3542;DHT22;1785;47.388;8.538;2023-08-17T03:27:36;25.50;99.90
3542;DHT22;1785;47.388;8.538;2023-08-17T03:30:02;25.60;99.90
3542;DHT22;1785;47.388;8.538;2023-08-17T03:32:29;25.60;99.90
3542;DHT22;1785;47.388;8.538;2023-08-17T03:34:55;25.60;99.90
3542;DHT22;1785;47.388;8.538;2023-08-17T03:37:21;25.60;99.90
3542;DHT22;1785;47.388;8.538;2023-08-17T03:39:47;25.60;99.90
3542;DHT22;1785;47.388;8.538;2023-08-17T03:42:14;25.60;99.90
3542;DHT22;1785;47.388;8.538;2023-08-17T03:44:40;25.50;99.90
3542;DHT22;1785;47.388;8.538;2023-08-17T03:47:06;25.40;99.90
3542;DHT22;1785;47.388;8.538;2023-08-17T03:49:32;25.40;99.90
3542;DHT22;1785;47.388;8.538;2023-08-17T03:51:58;25.40;99.90
3542;DHT22;1785;47.388;8.538;2023-08-17T03:54:24;25.40;99.90
3542;DHT22;1785;47.388;8.538;2023-08-17T03:56:50;25.60;99.90
3542;DHT22;1785;47.388;8.538;2023-08-17T03:59:16;25.60;99.90
3542;DHT22;1785;47.388;8.538;2023-08-17T04:01:42;25.50;99.90
3542;DHT22;1785;47.388;8.538;2023-08-17T04:04:09;25.30;99.90
3542;DHT22;1785;47.388;8.538;2023-08-17T04:06:35;25.20;99.90
3542;DHT22;1785;47.388;8.538;2023-08-17T04:09:01;25.30;99.90
3542;DHT22;1785;47.388;8.538;2023-08-17T04:11:27;25.30;99.90
3542;DHT22;1785;47.388;8.538;2023-08-17T04:13:53;25.40;99.90
3542;DHT22;1785;47.388;8.538;2023-08-17T04:16:20;25.30;99.90
3542;DHT22;1785;47.388;8.538;2023-08-17T04:18:46;25.30;99.90
3542;DHT22;1785;47.388;8.538;2023-08-17T04:21:12;25.30;99.90
3542;DHT22;1785;47.388;8.538;2023-08-17T04:23:38;25.20;99.90
3542;DHT22;1785;47.388;8.538;2023-08-17T04:26:04;25.20;99.90
3542;DHT22;1785;47.388;8.538;2023-08-17T04:28:30;25.10;99.90
3542;DHT22;1785;47.388;8.538;2023-08-17T04:30:57;25.00;99.90
3542;DHT22;1785;47.388;8.538;2023-08-17T04:33:23;25.00;99.90
3542;DHT22;1785;47.388;8.538;2023-08-17T04:35:49;25.00;99.90
3542;DHT22;1785;47.388;8.538;2023-08-17T04:38:15;25.00;99.90
3542;DHT22;1785;47.388;8.538;2023-08-17T04:40:42;25.10;99.90
3542;DHT22;1785;47.388;8.538;2023-08-17T04:43:09;25.10;99.90
3542;DHT22;1785;47.388;8.538;2023-08-17T04:45:35;25.20;99.90
3542;DHT22;1785;47.388;8.538;2023-08-17T04:48:01;25.20;99.90
3542;DHT22;1785;47.388;8.538;2023-08-17T04:50:28;25.10;99.90
3542;DHT22;1785;47.388;8.538;2023-08-17T04:52:54;25.20;99.90
3542;DHT22;1785;47.388;8.538;2023-08-17T04:55:20;25.10;99.90
3542;DHT22;1785;47.388;8.538;2023-08-17T04:57:46;25.20;99.90
3542;DHT22;1785;47.388;8.538;2023-08-17T05:00:14;25.20;99.90
3542;DHT22;1785;47.388;8.538;2023-08-17T05:02:40;25.20;99.90
3542;DHT22;1785;47.388;8.538;2023-08-17T05:05:10;25.00;99.90
3542;DHT22;1785;47.388;8.538;2023-08-17T05:07:36;25.00;99.90
3542;DHT22;1785;47.388;8.538;2023-08-17T05:10:03;25.00;99.90
3542;DHT22;1785;47.388;8.538;2023-08-17T05:12:29;25.10;99.90
3542;DHT22;1785;47.388;8.538;2023-08-17T05:14:55;25.10;99.90
3542;DHT22;1785;47.388;8.538;2023-08-17T05:17:21;25.20;99.90
3542;DHT22;1785;47.388;8.538;2023-08-17T05:19:47;25.10;99.90
3542;DHT22;1785;47.388;8.538;2023-08-17T05:22:13;25.10;99.90
3542;DHT22;1785;47.388;8.538;2023-08-17T05:24:40;25.10;99.90
3542;DHT22;1785;47.388;8.538;2023-08-17T05:27:07;25.20;99.90
3542;DHT22;1785;47.388;8.538;2023-08-17T05:29:34;25.20;99.90
3542;DHT22;1785;47.388;8.538;2023-08-17T05:32:00;25.20;99.90
3542;DHT22;1785;47.388;8.538;2023-08-17T05:34:26;25.10;99.90
3542;DHT22;1785;47.388;8.538;2023-08-17T05:36:52;25.00;99.90
3542;DHT22;1785;47.388;8.538;2023-08-17T05:39:18;25.00;99.90
3542;DHT22;1785;47.388;8.538;2023-08-17T05:41:45;25.00;99.90
3542;DHT22;1785;47.388;8.538;2023-08-17T05:44:11;24.90;99.90
3542;DHT22;1785;47.388;8.538;2023-08-17T05:46:39;25.10;99.90
3542;DHT22;1785;47.388;8.538;2023-08-17T05:49:05;25.20;99.90
3542;DHT22;1785;47.388;8.538;2023-08-17T05:51:32;25.40;99.90
3542;DHT22;1785;47.388;8.538;2023-08-17T05:53:58;25.50;99.90
3542;DHT22;1785;47.388;8.538;2023-08-17T05:56:24;25.40;99.90
3542;DHT22;1785;47.388;8.538;2023-08-17T05:58:50;25.40;99.90
3542;DHT22;1785;47.388;8.538;2023-08-17T06:01:17;25.40;99.90
3542;DHT22;1785;47.388;8.538;2023-08-17T06:03:43;25.30;99.90
3542;DHT22;1785;47.388;8.538;2023-08-17T06:06:09;25.20;99.90
3542;DHT22;1785;47.388;8.538;2023-08-17T06:08:35;25.20;99.90
3542;DHT22;1785;47.388;8.538;2023-08-17T06:11:01;25.20;99.90
3542;DHT22;1785;47.388;8.538;2023-08-17T06:13:28;25.10;99.90
3542;DHT22;1785;47.388;8.538;2023-08-17T06:15:56;25.10;99.90
3542;DHT22;1785;47.388;8.538;2023-08-17T06:18:22;25.10;99.90
3542;DHT22;1785;47.388;8.538;2023-08-17T06:20:48;25.20;99.90
3542;DHT22;1785;47.388;8.538;2023-08-17T06:23:17;25.30;99.90
3542;DHT22;1785;47.388;8.538;2023-08-17T06:25:43;25.40;99.90
3542;DHT22;1785;47.388;8.538;2023-08-17T06:28:09;25.60;99.90
3542;DHT22;1785;47.388;8.538;2023-08-17T06:30:35;25.60;99.90
3542;DHT22;1785;47.388;8.538;2023-08-17T06:33:03;25.70;99.90
3542;DHT22;1785;47.388;8.538;2023-08-17T06:35:30;25.70;99.90
3542;DHT22;1785;47.388;8.538;2023-08-17T06:37:56;25.70;99.90
3542;DHT22;1785;47.388;8.538;2023-08-17T06:40:23;25.50;99.90
3542;DHT22;1785;47.388;8.538;2023-08-17T06:42:49;25.30;99.90
3542;DHT22;1785;47.388;8.538;2023-08-17T06:45:15;25.20;99.90
3542;DHT22;1785;47.388;8.538;2023-08-17T06:47:43;25.20;99.90
3542;DHT22;1785;47.388;8.538;2023-08-17T06:50:11;25.30;99.90
3542;DHT22;1785;47.388;8.538;2023-08-17T06:52:37;25.40;99.90
3542;DHT22;1785;47.388;8.538;2023-08-17T06:55:05;25.00;99.90
3542;DHT22;1785;47.388;8.538;2023-08-17T06:57:31;25.00;99.90
3542;DHT22;1785;47.388;8.538;2023-08-17T06:59:57;25.30;99.90
3542;DHT22;1785;47.388;8.538;2023-08-17T07:02:23;25.30;99.90
3542;DHT22;1785;47.388;8.538;2023-08-17T07:04:49;25.10;99.90
3542;DHT22;1785;47.388;8.538;2023-08-17T07:07:16;24.90;99.90
3542;DHT22;1785;47.388;8.538;2023-08-17T07:09:42;24.80;99.90
3542;DHT22;1785;47.388;8.538;2023-08-17T07:12:08;24.80;99.90
3542;DHT22;1785;47.388;8.538;2023-08-17T07:14:34;24.70;99.90
3542;DHT22;1785;47.388;8.538;2023-08-17T07:17:00;24.70;99.90
3542;DHT22;1785;47.388;8.538;2023-08-17T07:19:26;24.80;99.90
3542;DHT22;1785;47.388;8.538;2023-08-17T07:21:52;24.80;99.90
3542;DHT22;1785;47.388;8.538;2023-08-17T07:24:19;25.00;99.90
3542;DHT22;1785;47.388;8.538;2023-08-17T07:26:45;25.30;99.90
3542;DHT22;1785;47.388;8.538;2023-08-17T07:29:11;25.30;99.90
3542;DHT22;1785;47.388;8.538;2023-08-17T07:31:38;25.00;99.90
3542;DHT22;1785;47.388;8.538;2023-08-17T07:34:04;24.90;99.90
3542;DHT22;1785;47.388;8.538;2023-08-17T07:36:30;25.10;99.90
3542;DHT22;1785;47.388;8.538;2023-08-17T07:38:56;25.20;99.90
3542;DHT22;1785;47.388;8.538;2023-08-17T07:41:23;25.40;99.90
3542;DHT22;1785;47.388;8.538;2023-08-17T07:43:49;25.30;99.90
3542;DHT22;1785;47.388;8.538;2023-08-17T07:46:15;25.60;99.90
3542;DHT22;1785;47.388;8.538;2023-08-17T07:48:41;25.70;99.90
3542;DHT22;1785;47.388;8.538;2023-08-17T07:51:07;25.70;99.90
3542;DHT22;1785;47.388;8.538;2023-08-17T07:53:34;25.60;99.90
3542;DHT22;1785;47.388;8.538;2023-08-17T07:56:00;25.80;99.90
3542;DHT22;1785;47.388;8.538;2023-08-17T07:58:27;25.90;99.90
3542;DHT22;1785;47.388;8.538;2023-08-17T08:00:53;26.10;99.90
3542;DHT22;1785;47.388;8.538;2023-08-17T08:03:19;25.90;99.90
3542;DHT22;1785;47.388;8.538;2023-08-17T08:05:45;25.90;99.90
3542;DHT22;1785;47.388;8.538;2023-08-17T08:08:11;26.10;99.90
3542;DHT22;1785;47.388;8.538;2023-08-17T08:10:37;25.70;99.90
3542;DHT22;1785;47.388;8.538;2023-08-17T08:13:04;25.40;99.90
3542;DHT22;1785;47.388;8.538;2023-08-17T08:15:31;25.60;99.90
3542;DHT22;1785;47.388;8.538;2023-08-17T08:17:57;25.80;99.90
3542;DHT22;1785;47.388;8.538;2023-08-17T08:20:23;26.00;99.90
3542;DHT22;1785;47.388;8.538;2023-08-17T08:22:49;26.30;99.90
3542;DHT22;1785;47.388;8.538;2023-08-17T08:25:16;26.50;99.90
3542;DHT22;1785;47.388;8.538;2023-08-17T08:27:42;26.40;99.90
3542;DHT22;1785;47.388;8.538;2023-08-17T08:30:08;26.40;99.90
3542;DHT22;1785;47.388;8.538;2023-08-17T08:32:35;26.30;99.90
3542;DHT22;1785;47.388;8.538;2023-08-17T08:35:02;26.10;99.90
3542;DHT22;1785;47.388;8.538;2023-08-17T08:37:28;26.00;99.90
3542;DHT22;1785;47.388;8.538;2023-08-17T08:39:54;26.10;99.90
3542;DHT22;1785;47.388;8.538;2023-08-17T08:42:22;26.30;99.90
3542;DHT22;1785;47.388;8.538;2023-08-17T08:44:49;26.50;99.90
3542;DHT22;1785;47.388;8.538;2023-08-17T08:47:17;26.60;99.90
3542;DHT22;1785;47.388;8.538;2023-08-17T08:49:50;26.80;99.90
3542;DHT22;1785;47.388;8.538;2023-08-17T08:52:23;26.70;99.90
3542;DHT22;1785;47.388;8.538;2023-08-17T08:54:50;26.70;99.90
3542;DHT22;1785;47.388;8.538;2023-08-17T08:57:18;26.70;99.90
3542;DHT22;1785;47.388;8.538;2023-08-17T08:59:45;26.50;99.90
3542;DHT22;1785;47.388;8.538;2023-08-17T09:02:15;26.20;99.90
3542;DHT22;1785;47.388;8.538;2023-08-17T09:04:42;26.20;99.90
3542;DHT22;1785;47.388;8.538;2023-08-17T09:07:10;26.30;99.90
3542;DHT22;1785;47.388;8.538;2023-08-17T09:09:38;26.60;99.90
3542;DHT22;1785;47.388;8.538;2023-08-17T09:12:04;26.60;99.90
3542;DHT22;1785;47.388;8.538;2023-08-17T09:14:32;26.60;99.90
3542;DHT22;1785;47.388;8.538;2023-08-17T09:16:58;26.80;99.90
3542;DHT22;1785;47.388;8.538;2023-08-17T09:19:25;27.10;99.90
3542;DHT22;1785;47.388;8.538;2023-08-17T09:21:51;27.00;99.90
3542;DHT22;1785;47.388;8.538;2023-08-17T09:24:17;27.20;99.90
3542;DHT22;1785;47.388;8.538;2023-08-17T09:26:43;27.20;99.90
3542;DHT22;1785;47.388;8.538;2023-08-17T09:29:20;27.10;99.90
3542;DHT22;1785;47.388;8.538;2023-08-17T09:31:46;27.10;99.90
3542;DHT22;1785;47.388;8.538;2023-08-17T09:34:14;27.20;99.90
3542;DHT22;1785;47.388;8.538;2023-08-17T09:36:41;27.20;99.90
3542;DHT22;1785;47.388;8.538;2023-08-17T09:39:07;27.40;99.90
3542;DHT22;1785;47.388;8.538;2023-08-17T09:41:38;27.50;99.90
3542;DHT22;1785;47.388;8.538;2023-08-17T09:44:06;27.70;99.90
3542;DHT22;1785;47.388;8.538;2023-08-17T09:46:33;27.60;99.90
3542;DHT22;1785;47.388;8.538;2023-08-17T09:49:02;27.50;99.90
3542;DHT22;1785;47.388;8.538;2023-08-17T09:51:30;27.50;99.90
3542;DHT22;1785;47.388;8.538;2023-08-17T09:53:56;27.10;99.90
3542;DHT22;1785;47.388;8.538;2023-08-17T09:56:23;27.10;99.90
3542;DHT22;1785;47.388;8.538;2023-08-17T09:58:50;27.20;99.90
3542;DHT22;1785;47.388;8.538;2023-08-17T10:01:19;27.20;99.90
3542;DHT22;1785;47.388;8.538;2023-08-17T10:03:46;27.20;99.90
3542;DHT22;1785;47.388;8.538;2023-08-17T10:06:13;27.20;99.90
3542;DHT22;1785;47.388;8.538;2023-08-17T10:08:43;27.20;99.90
3542;DHT22;1785;47.388;8.538;2023-08-17T10:11:12;27.30;99.90
3542;DHT22;1785;47.388;8.538;2023-08-17T10:13:42;27.50;99.90
3542;DHT22;1785;47.388;8.538;2023-08-17T10:16:13;27.50;99.90
3542;DHT22;1785;47.388;8.538;2023-08-17T10:18:48;27.60;99.90
3542;DHT22;1785;47.388;8.538;2023-08-17T10:21:23;27.80;99.90
3542;DHT22;1785;47.388;8.538;2023-08-17T10:23:51;28.00;99.90
3542;DHT22;1785;47.388;8.538;2023-08-17T10:26:18;28.10;99.90
3542;DHT22;1785;47.388;8.538;2023-08-17T10:28:45;27.90;99.90
3542;DHT22;1785;47.388;8.538;2023-08-17T10:31:12;27.90;99.90
3542;DHT22;1785;47.388;8.538;2023-08-17T10:33:39;28.20;99.90
3542;DHT22;1785;47.388;8.538;2023-08-17T10:36:07;28.20;99.90
3542;DHT22;1785;47.388;8.538;2023-08-17T10:38:33;28.30;99.90
3542;DHT22;1785;47.388;8.538;2023-08-17T10:41:10;28.20;99.90
3542;DHT22;1785;47.388;8.538;2023-08-17T10:43:54;28.00;99.90
3542;DHT22;1785;47.388;8.538;2023-08-17T10:46:21;28.10;99.90
3542;DHT22;1785;47.388;8.538;2023-08-17T10:48:47;28.20;99.90
3542;DHT22;1785;47.388;8.538;2023-08-17T10:51:13;28.40;99.90
3542;DHT22;1785;47.388;8.538;2023-08-17T10:53:43;28.60;99.90
3542;DHT22;1785;47.388;8.538;2023-08-17T10:56:13;28.30;99.90
3542;DHT22;1785;47.388;8.538;2023-08-17T10:58:39;28.60;99.90
3542;DHT22;1785;47.388;8.538;2023-08-17T11:01:08;28.70;99.90
3542;DHT22;1785;47.388;8.538;2023-08-17T11:03:35;28.60;99.90
3542;DHT22;1785;47.388;8.538;2023-08-17T11:06:15;28.60;99.90
3542;DHT22;1785;47.388;8.538;2023-08-17T11:08:52;28.50;99.90
3542;DHT22;1785;47.388;8.538;2023-08-17T11:11:20;28.50;99.90
3542;DHT22;1785;47.388;8.538;2023-08-17T11:13:47;28.60;99.90
3542;DHT22;1785;47.388;8.538;2023-08-17T11:16:15;28.90;99.90
3542;DHT22;1785;47.388;8.538;2023-08-17T11:18:42;29.00;99.90
3542;DHT22;1785;47.388;8.538;2023-08-17T11:21:10;29.20;99.90
3542;DHT22;1785;47.388;8.538;2023-08-17T11:23:37;29.10;99.90
3542;DHT22;1785;47.388;8.538;2023-08-17T11:26:04;29.10;99.90
3542;DHT22;1785;47.388;8.538;2023-08-17T11:28:30;29.30;99.90
3542;DHT22;1785;47.388;8.538;2023-08-17T11:31:02;29.10;99.90
3542;DHT22;1785;47.388;8.538;2023-08-17T11:33:30;29.30;99.90
3542;DHT22;1785;47.388;8.538;2023-08-17T11:35:58;29.70;99.90
3542;DHT22;1785;47.388;8.538;2023-08-17T11:38:25;29.70;99.90
3542;DHT22;1785;47.388;8.538;2023-08-17T11:40:51;29.20;99.90
3542;DHT22;1785;47.388;8.538;2023-08-17T11:43:18;28.80;99.90
3542;DHT22;1785;47.388;8.538;2023-08-17T11:45:44;28.70;99.90
3542;DHT22;1785;47.388;8.538;2023-08-17T11:48:10;28.90;99.90
3542;DHT22;1785;47.388;8.538;2023-08-17T11:50:36;29.10;99.90
3542;DHT22;1785;47.388;8.538;2023-08-17T11:53:04;29.00;99.90
3542;DHT22;1785;47.388;8.538;2023-08-17T11:55:31;29.00;99.90
3542;DHT22;1785;47.388;8.538;2023-08-17T11:57:57;28.70;99.90
3542;DHT22;1785;47.388;8.538;2023-08-17T12:00:23;28.80;99.90
3542;DHT22;1785;47.388;8.538;2023-08-17T12:02:51;28.70;99.90
3542;DHT22;1785;47.388;8.538;2023-08-17T12:05:21;28.80;99.90
3542;DHT22;1785;47.388;8.538;2023-08-17T12:07:48;29.00;99.90
3542;DHT22;1785;47.388;8.538;2023-08-17T12:10:17;29.00;99.90
3542;DHT22;1785;47.388;8.538;2023-08-17T12:12:46;29.30;99.90
3542;DHT22;1785;47.388;8.538;2023-08-17T12:15:14;29.40;99.90
3542;DHT22;1785;47.388;8.538;2023-08-17T12:17:44;29.50;99.90
3542;DHT22;1785;47.388;8.538;2023-08-17T12:20:15;29.70;99.90
3542;DHT22;1785;47.388;8.538;2023-08-17T12:22:42;29.90;99.90
3542;DHT22;1785;47.388;8.538;2023-08-17T12:25:09;30.00;99.90
3542;DHT22;1785;47.388;8.538;2023-08-17T12:27:36;30.10;99.90
3542;DHT22;1785;47.388;8.538;2023-08-17T12:30:02;30.00;99.90
3542;DHT22;1785;47.388;8.538;2023-08-17T12:32:28;29.70;99.90
3542;DHT22;1785;47.388;8.538;2023-08-17T12:34:54;29.80;99.90
3542;DHT22;1785;47.388;8.538;2023-08-17T12:37:21;29.80;99.90
3542;DHT22;1785;47.388;8.538;2023-08-17T12:39:47;29.80;99.90
3542;DHT22;1785;47.388;8.538;2023-08-17T12:42:14;29.90;99.90
3542;DHT22;1785;47.388;8.538;2023-08-17T12:44:41;29.80;99.90
3542;DHT22;1785;47.388;8.538;2023-08-17T12:47:07;29.80;99.90
3542;DHT22;1785;47.388;8.538;2023-08-17T12:49:33;29.50;99.90
3542;DHT22;1785;47.388;8.538;2023-08-17T12:51:59;29.30;99.90
3542;DHT22;1785;47.388;8.538;2023-08-17T12:54:25;29.40;99.90
3542;DHT22;1785;47.388;8.538;2023-08-17T12:56:51;29.40;99.90
3542;DHT22;1785;47.388;8.538;2023-08-17T12:59:17;29.50;99.90
3542;DHT22;1785;47.388;8.538;2023-08-17T13:01:44;29.40;99.90
3542;DHT22;1785;47.388;8.538;2023-08-17T13:04:10;29.30;99.90
3542;DHT22;1785;47.388;8.538;2023-08-17T13:06:37;29.30;99.90
3542;DHT22;1785;47.388;8.538;2023-08-17T13:09:04;29.30;99.90
3542;DHT22;1785;47.388;8.538;2023-08-17T13:11:31;29.40;99.90
3542;DHT22;1785;47.388;8.538;2023-08-17T13:13:57;29.30;99.90
3542;DHT22;1785;47.388;8.538;2023-08-17T13:16:23;29.30;99.90
3542;DHT22;1785;47.388;8.538;2023-08-17T13:18:50;29.40;99.90
3542;DHT22;1785;47.388;8.538;2023-08-17T13:21:16;29.30;99.90
3542;DHT22;1785;47.388;8.538;2023-08-17T13:23:43;29.20;99.90
3542;DHT22;1785;47.388;8.538;2023-08-17T13:26:09;29.10;99.90
3542;DHT22;1785;47.388;8.538;2023-08-17T13:28:35;29.10;99.90
3542;DHT22;1785;47.388;8.538;2023-08-17T13:31:01;29.10;99.90
3542;DHT22;1785;47.388;8.538;2023-08-17T13:33:27;29.10;99.90
3542;DHT22;1785;47.388;8.538;2023-08-17T13:35:54;29.10;99.90
3542;DHT22;1785;47.388;8.538;2023-08-17T13:38:20;29.00;99.90
3542;DHT22;1785;47.388;8.538;2023-08-17T13:40:47;29.00;99.90
3542;DHT22;1785;47.388;8.538;2023-08-17T13:43:13;29.00;99.90
3542;DHT22;1785;47.388;8.538;2023-08-17T13:45:39;29.10;99.90
3542;DHT22;1785;47.388;8.538;2023-08-17T13:48:06;29.10;99.90
3542;DHT22;1785;47.388;8.538;2023-08-17T13:50:32;29.10;99.90
3542;DHT22;1785;47.388;8.538;2023-08-17T13:52:59;29.20;99.90
3542;DHT22;1785;47.388;8.538;2023-08-17T13:55:26;29.20;99.90
3542;DHT22;1785;47.388;8.538;2023-08-17T13:57:52;29.20;99.90
3542;DHT22;1785;47.388;8.538;2023-08-17T14:00:18;29.10;99.90
3542;DHT22;1785;47.388;8.538;2023-08-17T14:02:44;29.10;99.90
3542;DHT22;1785;47.388;8.538;2023-08-17T14:05:10;29.10;99.90
3542;DHT22;1785;47.388;8.538;2023-08-17T14:07:36;29.10;99.90
3542;DHT22;1785;47.388;8.538;2023-08-17T14:10:03;29.00;99.90
3542;DHT22;1785;47.388;8.538;2023-08-17T14:12:30;29.10;99.90
3542;DHT22;1785;47.388;8.538;2023-08-17T14:14:56;29.00;99.90
3542;DHT22;1785;47.388;8.538;2023-08-17T14:17:22;28.90;99.90
3542;DHT22;1785;47.388;8.538;2023-08-17T14:19:48;28.70;99.90
3542;DHT22;1785;47.388;8.538;2023-08-17T14:22:14;28.60;99.90
3542;DHT22;1785;47.388;8.538;2023-08-17T14:24:40;28.50;99.90
3542;DHT22;1785;47.388;8.538;2023-08-17T14:27:07;28.50;99.90
3542;DHT22;1785;47.388;8.538;2023-08-17T14:29:33;28.60;99.90
3542;DHT22;1785;47.388;8.538;2023-08-17T14:31:59;28.90;99.90
3542;DHT22;1785;47.388;8.538;2023-08-17T14:34:25;28.90;99.90
3542;DHT22;1785;47.388;8.538;2023-08-17T14:36:51;29.00;99.90
3542;DHT22;1785;47.388;8.538;2023-08-17T14:39:17;28.90;99.90
3542;DHT22;1785;47.388;8.538;2023-08-17T14:41:44;28.90;99.90
3542;DHT22;1785;47.388;8.538;2023-08-17T14:44:11;28.60;99.90
3542;DHT22;1785;47.388;8.538;2023-08-17T14:46:37;28.80;99.90
3542;DHT22;1785;47.388;8.538;2023-08-17T14:49:04;28.70;99.90
3542;DHT22;1785;47.388;8.538;2023-08-17T14:51:37;28.40;99.90
3542;DHT22;1785;47.388;8.538;2023-08-17T14:54:04;28.30;99.90
3542;DHT22;1785;47.388;8.538;2023-08-17T14:56:30;28.10;99.90
3542;DHT22;1785;47.388;8.538;2023-08-17T14:58:56;27.90;99.90
3542;DHT22;1785;47.388;8.538;2023-08-17T15:01:23;27.60;99.90
3542;DHT22;1785;47.388;8.538;2023-08-17T15:03:49;27.30;99.90
3542;DHT22;1785;47.388;8.538;2023-08-17T15:06:15;27.20;99.90
3542;DHT22;1785;47.388;8.538;2023-08-17T15:08:41;27.10;99.90
3542;DHT22;1785;47.388;8.538;2023-08-17T15:11:07;27.00;99.90
3542;DHT22;1785;47.388;8.538;2023-08-17T15:13:33;27.20;99.90
3542;DHT22;1785;47.388;8.538;2023-08-17T15:15:59;27.20;99.90
3542;DHT22;1785;47.388;8.538;2023-08-17T15:18:26;27.20;99.90
3542;DHT22;1785;47.388;8.538;2023-08-17T15:20:52;27.20;99.90
3542;DHT22;1785;47.388;8.538;2023-08-17T15:23:18;27.30;99.90
3542;DHT22;1785;47.388;8.538;2023-08-17T15:25:44;27.20;99.90
3542;DHT22;1785;47.388;8.538;2023-08-17T15:28:10;27.30;99.90
3542;DHT22;1785;47.388;8.538;2023-08-17T15:30:36;27.20;99.90
3542;DHT22;1785;47.388;8.538;2023-08-17T15:33:03;27.30;99.90
3542;DHT22;1785;47.388;8.538;2023-08-17T15:35:30;27.40;99.90
3542;DHT22;1785;47.388;8.538;2023-08-17T15:37:55;27.50;99.90
3542;DHT22;1785;47.388;8.538;2023-08-17T15:40:22;27.60;99.90
3542;DHT22;1785;47.388;8.538;2023-08-17T15:42:48;27.70;99.90
3542;DHT22;1785;47.388;8.538;2023-08-17T15:45:14;27.60;99.90
3542;DHT22;1785;47.388;8.538;2023-08-17T15:47:40;27.60;99.90
3542;DHT22;1785;47.388;8.538;2023-08-17T15:50:06;27.70;99.90
3542;DHT22;1785;47.388;8.538;2023-08-17T15:52:33;27.60;99.90
3542;DHT22;1785;47.388;8.538;2023-08-17T15:54:59;27.60;99.90
3542;DHT22;1785;47.388;8.538;2023-08-17T15:57:25;27.70;99.90
3542;DHT22;1785;47.388;8.538;2023-08-17T15:59:51;27.70;99.90